<?xml version="1.0" encoding="UTF-8" standalone="no" ?>
<gpx xmlns="http://www.topografix.com/GPX/1/1" xmlns:xsi="http://www.w3.org/2001/XMLSchema-instance" xsi:schemaLocation="http://www.topografix.com/GPX/1/1 http://www.topografix.com/GPX/1/1/gpx.xsd" version="1.1" creator="VisuGPX - https://www.visugpx.com">
  <metadata>
    <name>Castel de Saint-Blaise</name>
    <desc><![CDATA[Rando sympa et courte]]></desc>
  </metadata>
  <wpt lat="43.8214" lon="7.23916">
    <ele>318</ele>
    <name><![CDATA[Place de l'Église]]></name>
  </wpt>
  <wpt lat="43.82047" lon="7.24027">
    <ele>336</ele>
    <name><![CDATA[Balise 826]]></name>
  </wpt>
  <wpt lat="43.81457" lon="7.23903">
    <ele>495</ele>
    <name><![CDATA[Balise direction village]]></name>
  </wpt>
  <wpt lat="43.82138" lon="7.23919">
    <ele>318</ele>
    <name><![CDATA[Place de l'Église]]></name>
  </wpt>
  <trk>
    <name><![CDATA[Castel de Saint-Blaise]]></name>
    <trkseg>
      <trkpt lat="43.8214" lon="7.23916">
        <ele>318</ele>
        <time>2020-01-04T10:01:24+01:00</time>
      </trkpt>
      <trkpt lat="43.8211" lon="7.23926">
        <ele>319</ele>
        <time>2020-01-04T10:02:14+01:00</time>
      </trkpt>
      <trkpt lat="43.82093" lon="7.2395">
        <ele>321</ele>
        <time>2020-01-04T10:02:53+01:00</time>
      </trkpt>
      <trkpt lat="43.82102" lon="7.23975">
        <ele>321</ele>
        <time>2020-01-04T10:03:22+01:00</time>
      </trkpt>
      <trkpt lat="43.82083" lon="7.23994">
        <ele>325</ele>
        <time>2020-01-04T10:03:52+01:00</time>
      </trkpt>
      <trkpt lat="43.82068" lon="7.24007">
        <ele>328</ele>
        <time>2020-01-04T10:04:33+01:00</time>
      </trkpt>
      <trkpt lat="43.82047" lon="7.24027">
        <ele>336</ele>
        <time>2020-01-04T10:06:35+01:00</time>
      </trkpt>
      <trkpt lat="43.82038" lon="7.24058">
        <ele>341</ele>
        <time>2020-01-04T10:09:42+01:00</time>
      </trkpt>
      <trkpt lat="43.82016" lon="7.24051">
        <ele>346</ele>
        <time>2020-01-04T10:11:02+01:00</time>
      </trkpt>
      <trkpt lat="43.81999" lon="7.24058">
        <ele>352</ele>
        <time>2020-01-04T10:12:08+01:00</time>
      </trkpt>
      <trkpt lat="43.81994" lon="7.24087">
        <ele>359</ele>
        <time>2020-01-04T10:13:40+01:00</time>
      </trkpt>
      <trkpt lat="43.81989" lon="7.24117">
        <ele>367</ele>
        <time>2020-01-04T10:16:41+01:00</time>
      </trkpt>
      <trkpt lat="43.81986" lon="7.24148">
        <ele>371</ele>
        <time>2020-01-04T10:18:24+01:00</time>
      </trkpt>
      <trkpt lat="43.81993" lon="7.24177">
        <ele>370</ele>
        <time>2020-01-04T10:18:53+01:00</time>
      </trkpt>
      <trkpt lat="43.8201" lon="7.24205">
        <ele>369</ele>
        <time>2021-09-22T05:29:34+02:00</time>
      </trkpt>
      <trkpt lat="43.82001" lon="7.24214">
        <ele>374</ele>
        <time>2021-09-22T05:29:39+02:00</time>
      </trkpt>
      <trkpt lat="43.81992" lon="7.24214">
        <ele>379</ele>
        <time>2020-01-04T10:20:07+01:00</time>
      </trkpt>
      <trkpt lat="43.81979" lon="7.24211">
        <ele>385</ele>
        <time>2021-09-22T05:29:49+02:00</time>
      </trkpt>
      <trkpt lat="43.81974" lon="7.24222">
        <ele>390</ele>
        <time>2020-01-04T10:24:26+01:00</time>
      </trkpt>
      <trkpt lat="43.81963" lon="7.24218">
        <ele>394</ele>
        <time>2020-01-04T10:26:38+01:00</time>
      </trkpt>
      <trkpt lat="43.81952" lon="7.24206">
        <ele>397</ele>
        <time>2021-09-22T05:30:04+02:00</time>
      </trkpt>
      <trkpt lat="43.81941" lon="7.2421">
        <ele>402</ele>
        <time>2021-09-22T05:30:09+02:00</time>
      </trkpt>
      <trkpt lat="43.81936" lon="7.24203">
        <ele>405</ele>
        <time>2020-01-04T10:30:18+01:00</time>
      </trkpt>
      <trkpt lat="43.81924" lon="7.24205">
        <ele>413</ele>
        <time>2021-09-22T05:30:19+02:00</time>
      </trkpt>
      <trkpt lat="43.81916" lon="7.24196">
        <ele>419</ele>
        <time>2020-01-04T10:33:04+01:00</time>
      </trkpt>
      <trkpt lat="43.81908" lon="7.24203">
        <ele>422</ele>
        <time>2021-09-22T05:30:29+02:00</time>
      </trkpt>
      <trkpt lat="43.81896" lon="7.24192">
        <ele>431</ele>
        <time>2021-09-22T05:30:34+02:00</time>
      </trkpt>
      <trkpt lat="43.81891" lon="7.24202">
        <ele>432</ele>
        <time>2020-01-04T10:37:27+01:00</time>
      </trkpt>
      <trkpt lat="43.81869" lon="7.24205">
        <ele>444</ele>
        <time>2020-01-04T10:38:56+01:00</time>
      </trkpt>
      <trkpt lat="43.81847" lon="7.24217">
        <ele>457</ele>
        <time>2020-01-04T10:42:46+01:00</time>
      </trkpt>
      <trkpt lat="43.8183" lon="7.24235">
        <ele>466</ele>
        <time>2020-01-04T10:43:53+01:00</time>
      </trkpt>
      <trkpt lat="43.81809" lon="7.24246">
        <ele>477</ele>
        <time>2020-01-04T10:45:38+01:00</time>
      </trkpt>
      <trkpt lat="43.81797" lon="7.24257">
        <ele>480</ele>
        <time>2020-01-04T10:46:09+01:00</time>
      </trkpt>
      <trkpt lat="43.81786" lon="7.24275">
        <ele>479</ele>
        <time>2020-01-04T10:54:37+01:00</time>
      </trkpt>
      <trkpt lat="43.81766" lon="7.24295">
        <ele>481</ele>
        <time>2020-01-04T10:54:41+01:00</time>
      </trkpt>
      <trkpt lat="43.81747" lon="7.24316">
        <ele>481</ele>
        <time>2020-01-04T10:55:54+01:00</time>
      </trkpt>
      <trkpt lat="43.81725" lon="7.24324">
        <ele>488</ele>
        <time>2020-01-04T10:56:28+01:00</time>
      </trkpt>
      <trkpt lat="43.81707" lon="7.24343">
        <ele>488</ele>
        <time>2020-01-04T10:57:12+01:00</time>
      </trkpt>
      <trkpt lat="43.81687" lon="7.24358">
        <ele>491</ele>
        <time>2020-01-04T10:58:00+01:00</time>
      </trkpt>
      <trkpt lat="43.81666" lon="7.24374">
        <ele>494</ele>
        <time>2020-01-04T10:58:53+01:00</time>
      </trkpt>
      <trkpt lat="43.81642" lon="7.24391">
        <ele>498</ele>
        <time>2020-01-04T10:59:11+01:00</time>
      </trkpt>
      <trkpt lat="43.81622" lon="7.24404">
        <ele>498</ele>
        <time>2020-01-04T10:59:26+01:00</time>
      </trkpt>
      <trkpt lat="43.81606" lon="7.24419">
        <ele>496</ele>
        <time>2020-01-04T10:59:54+01:00</time>
      </trkpt>
      <trkpt lat="43.81584" lon="7.24424">
        <ele>500</ele>
        <time>2020-01-04T11:00:23+01:00</time>
      </trkpt>
      <trkpt lat="43.81569" lon="7.24422">
        <ele>504</ele>
        <time>2020-01-04T11:02:03+01:00</time>
      </trkpt>
      <trkpt lat="43.81585" lon="7.24412">
        <ele>505</ele>
        <time>2020-01-04T11:06:26+01:00</time>
      </trkpt>
      <trkpt lat="43.81604" lon="7.24397">
        <ele>507</ele>
        <time>2020-01-04T11:07:09+01:00</time>
      </trkpt>
      <trkpt lat="43.81622" lon="7.24381">
        <ele>509</ele>
        <time>2020-01-04T11:10:49+01:00</time>
      </trkpt>
      <trkpt lat="43.81642" lon="7.24368">
        <ele>508</ele>
        <time>2020-01-04T11:11:30+01:00</time>
      </trkpt>
      <trkpt lat="43.81665" lon="7.24346">
        <ele>507</ele>
        <time>2020-01-04T11:12:28+01:00</time>
      </trkpt>
      <trkpt lat="43.81682" lon="7.24334">
        <ele>504</ele>
        <time>2020-01-04T11:12:53+01:00</time>
      </trkpt>
      <trkpt lat="43.81702" lon="7.24318">
        <ele>501</ele>
        <time>2020-01-04T11:13:20+01:00</time>
      </trkpt>
      <trkpt lat="43.81721" lon="7.24304">
        <ele>498</ele>
        <time>2020-01-04T11:13:28+01:00</time>
      </trkpt>
      <trkpt lat="43.81727" lon="7.24274">
        <ele>499</ele>
        <time>2020-01-04T11:14:43+01:00</time>
      </trkpt>
      <trkpt lat="43.81759" lon="7.24233">
        <ele>496</ele>
        <time>2020-01-04T12:26:30+01:00</time>
      </trkpt>
      <trkpt lat="43.81723" lon="7.24276">
        <ele>500</ele>
        <time>2020-01-04T12:28:09+01:00</time>
      </trkpt>
      <trkpt lat="43.81692" lon="7.24259">
        <ele>499</ele>
        <time>2020-01-04T12:30:30+01:00</time>
      </trkpt>
      <trkpt lat="43.81672" lon="7.24246">
        <ele>503</ele>
        <time>2020-01-04T12:31:04+01:00</time>
      </trkpt>
      <trkpt lat="43.81663" lon="7.24217">
        <ele>500</ele>
        <time>2020-01-04T12:31:35+01:00</time>
      </trkpt>
      <trkpt lat="43.81648" lon="7.24193">
        <ele>498</ele>
        <time>2020-01-04T12:32:34+01:00</time>
      </trkpt>
      <trkpt lat="43.81625" lon="7.24194">
        <ele>500</ele>
        <time>2020-01-04T12:33:00+01:00</time>
      </trkpt>
      <trkpt lat="43.81601" lon="7.24196">
        <ele>502</ele>
        <time>2020-01-04T12:33:35+01:00</time>
      </trkpt>
      <trkpt lat="43.81578" lon="7.24196">
        <ele>505</ele>
        <time>2020-01-04T12:33:55+01:00</time>
      </trkpt>
      <trkpt lat="43.81558" lon="7.2418">
        <ele>506</ele>
        <time>2020-01-04T12:34:14+01:00</time>
      </trkpt>
      <trkpt lat="43.81546" lon="7.24153">
        <ele>507</ele>
        <time>2020-01-04T12:34:53+01:00</time>
      </trkpt>
      <trkpt lat="43.81548" lon="7.2412">
        <ele>506</ele>
        <time>2020-01-04T12:35:29+01:00</time>
      </trkpt>
      <trkpt lat="43.81556" lon="7.2409">
        <ele>498</ele>
        <time>2020-01-04T12:35:51+01:00</time>
      </trkpt>
      <trkpt lat="43.81558" lon="7.24057">
        <ele>491</ele>
        <time>2020-01-04T12:36:39+01:00</time>
      </trkpt>
      <trkpt lat="43.8155" lon="7.24026">
        <ele>491</ele>
        <time>2020-01-04T12:37:02+01:00</time>
      </trkpt>
      <trkpt lat="43.8154" lon="7.23997">
        <ele>489</ele>
        <time>2020-01-04T12:37:18+01:00</time>
      </trkpt>
      <trkpt lat="43.81522" lon="7.23977">
        <ele>490</ele>
        <time>2020-01-04T12:37:39+01:00</time>
      </trkpt>
      <trkpt lat="43.81506" lon="7.23956">
        <ele>489</ele>
        <time>2020-01-04T12:38:04+01:00</time>
      </trkpt>
      <trkpt lat="43.81487" lon="7.23937">
        <ele>489</ele>
        <time>2020-01-04T12:38:36+01:00</time>
      </trkpt>
      <trkpt lat="43.81469" lon="7.23919">
        <ele>489</ele>
        <time>2020-01-04T12:38:58+01:00</time>
      </trkpt>
      <trkpt lat="43.81457" lon="7.23903">
        <ele>495</ele>
        <time>2021-09-22T05:34:34+02:00</time>
      </trkpt>
      <trkpt lat="43.81491" lon="7.23915">
        <ele>477</ele>
        <time>2020-01-04T12:40:21+01:00</time>
      </trkpt>
      <trkpt lat="43.81514" lon="7.23917">
        <ele>468</ele>
        <time>2020-01-04T12:40:52+01:00</time>
      </trkpt>
      <trkpt lat="43.81536" lon="7.23925">
        <ele>462</ele>
        <time>2020-01-04T12:41:32+01:00</time>
      </trkpt>
      <trkpt lat="43.81559" lon="7.23932">
        <ele>457</ele>
        <time>2020-01-04T12:42:14+01:00</time>
      </trkpt>
      <trkpt lat="43.81581" lon="7.2393">
        <ele>447</ele>
        <time>2020-01-04T12:42:41+01:00</time>
      </trkpt>
      <trkpt lat="43.81601" lon="7.23942">
        <ele>445</ele>
        <time>2020-01-04T12:44:23+01:00</time>
      </trkpt>
      <trkpt lat="43.81612" lon="7.23959">
        <ele>442</ele>
        <time>2021-09-22T05:35:09+02:00</time>
      </trkpt>
      <trkpt lat="43.81618" lon="7.23955">
        <ele>438</ele>
        <time>2020-01-04T12:44:56+01:00</time>
      </trkpt>
      <trkpt lat="43.81627" lon="7.2398">
        <ele>434</ele>
        <time>2021-09-22T05:35:19+02:00</time>
      </trkpt>
      <trkpt lat="43.81632" lon="7.23964">
        <ele>431</ele>
        <time>2021-09-22T05:35:24+02:00</time>
      </trkpt>
      <trkpt lat="43.81649" lon="7.23977">
        <ele>421</ele>
        <time>2020-01-04T12:47:19+01:00</time>
      </trkpt>
      <trkpt lat="43.81662" lon="7.23964">
        <ele>412</ele>
        <time>2020-01-04T12:48:14+01:00</time>
      </trkpt>
      <trkpt lat="43.81671" lon="7.2393">
        <ele>403</ele>
        <time>2021-09-22T05:35:39+02:00</time>
      </trkpt>
      <trkpt lat="43.8169" lon="7.23955">
        <ele>398</ele>
        <time>2020-01-04T12:48:57+01:00</time>
      </trkpt>
      <trkpt lat="43.817" lon="7.23939">
        <ele>390</ele>
        <time>2020-01-04T12:49:37+01:00</time>
      </trkpt>
      <trkpt lat="43.81717" lon="7.23941">
        <ele>382</ele>
        <time>2020-01-04T12:50:08+01:00</time>
      </trkpt>
      <trkpt lat="43.81735" lon="7.23941">
        <ele>379</ele>
        <time>2020-01-04T12:50:42+01:00</time>
      </trkpt>
      <trkpt lat="43.81757" lon="7.23935">
        <ele>375</ele>
        <time>2020-01-04T12:51:09+01:00</time>
      </trkpt>
      <trkpt lat="43.81778" lon="7.23936">
        <ele>372</ele>
        <time>2020-01-04T12:51:32+01:00</time>
      </trkpt>
      <trkpt lat="43.81807" lon="7.23945">
        <ele>370</ele>
        <time>2020-01-04T12:52:50+01:00</time>
      </trkpt>
      <trkpt lat="43.81815" lon="7.2392">
        <ele>362</ele>
        <time>2021-09-22T05:36:19+02:00</time>
      </trkpt>
      <trkpt lat="43.81828" lon="7.23926">
        <ele>362</ele>
        <time>2020-01-04T12:53:20+01:00</time>
      </trkpt>
      <trkpt lat="43.81839" lon="7.23913">
        <ele>357</ele>
        <time>2020-01-04T12:55:29+01:00</time>
      </trkpt>
      <trkpt lat="43.81858" lon="7.23893">
        <ele>351</ele>
        <time>2020-01-04T12:57:00+01:00</time>
      </trkpt>
      <trkpt lat="43.8187" lon="7.23866">
        <ele>344</ele>
        <time>2020-01-04T12:58:49+01:00</time>
      </trkpt>
      <trkpt lat="43.81873" lon="7.23853">
        <ele>341</ele>
        <time>2020-01-04T12:59:57+01:00</time>
      </trkpt>
      <trkpt lat="43.81908" lon="7.23858">
        <ele>334</ele>
        <time>2020-01-04T13:00:12+01:00</time>
      </trkpt>
      <trkpt lat="43.81923" lon="7.2388">
        <ele>332</ele>
        <time>2020-01-04T13:00:57+01:00</time>
      </trkpt>
      <trkpt lat="43.81935" lon="7.23908">
        <ele>329</ele>
        <time>2020-01-04T13:01:57+01:00</time>
      </trkpt>
      <trkpt lat="43.81946" lon="7.23937">
        <ele>331</ele>
        <time>2020-01-04T13:03:08+01:00</time>
      </trkpt>
      <trkpt lat="43.81963" lon="7.23958">
        <ele>330</ele>
        <time>2020-01-04T13:03:31+01:00</time>
      </trkpt>
      <trkpt lat="43.8198" lon="7.23979">
        <ele>334</ele>
        <time>2020-01-04T13:03:51+01:00</time>
      </trkpt>
      <trkpt lat="43.82001" lon="7.23992">
        <ele>333</ele>
        <time>2020-01-04T13:04:14+01:00</time>
      </trkpt>
      <trkpt lat="43.82023" lon="7.23999">
        <ele>334</ele>
        <time>2020-01-04T13:04:36+01:00</time>
      </trkpt>
      <trkpt lat="43.82048" lon="7.24025">
        <ele>335</ele>
        <time>2020-01-04T13:05:14+01:00</time>
      </trkpt>
      <trkpt lat="43.82063" lon="7.24011">
        <ele>330</ele>
        <time>2020-01-04T13:07:10+01:00</time>
      </trkpt>
      <trkpt lat="43.82082" lon="7.23994">
        <ele>325</ele>
        <time>2020-01-04T13:08:01+01:00</time>
      </trkpt>
      <trkpt lat="43.82101" lon="7.23976">
        <ele>321</ele>
        <time>2020-01-04T13:08:34+01:00</time>
      </trkpt>
      <trkpt lat="43.82092" lon="7.23948">
        <ele>321</ele>
        <time>2020-01-04T13:09:29+01:00</time>
      </trkpt>
      <trkpt lat="43.82108" lon="7.23925">
        <ele>319</ele>
        <time>2020-01-04T13:10:30+01:00</time>
      </trkpt>
      <trkpt lat="43.82138" lon="7.23919">
        <ele>318</ele>
        <time>2020-01-04T13:10:57+01:00</time>
      </trkpt>
    </trkseg>
  </trk>
</gpx>